Telluride, CO

8:47 AM MDT on August 20, 2014 (GMT -0600)
Telluride Regional | Change Station
CLOSE
Current Station
Airport
Location: Telluride,
Elevation: 9078 ft
Nearby Weather Stations

Elev 9078 ft 37.95 °N, 107.91 °W | Updated 30 minutes ago

Mostly Cloudy
Mostly Cloudy
54 °F
Feels Like 54 °F
N
0
Wind Variable Wind from North

Today
High -- | Low -- °F
--% Chance of Precip.
Yesterday
High -- | Low -- °F
Precip. -- in
6:30 AM 7:57 PM
Waning Crescent, 21% visible
Pressure 30.29 in
Visibility 10.0 miles
Clouds Scattered Clouds 200 ft
Scattered Clouds 2100 ft
Mostly Cloudy 2800 ft
Dew Point 54 °F
Humidity 100%
Rainfall 0.03 in
Snow Depth 0 in , 0 in , 1 in
UV 1 out of 12
Pollen 5.60 out of 12
Air Quality Not available.
Flu Activity Not available.
METAR KTEX 201417Z AUTO 00000KT 10SM SCT002 SCT021 BKN028 12/12 A3029 RMK AO2

More Conditions Fewer Conditions

Pressure 30.29 in
Visibility 10.0 miles
Clouds Scattered Clouds 200 ft
Scattered Clouds 2100 ft
Mostly Cloudy 2800 ft
Dew Point 54 °F
Humidity 100%
Rainfall 0.03 in
Snow Depth 0 in , 0 in , 1 in
UV 1 out of 12
Pollen 5.60 out of 12
Air Quality Not available.
Flu Activity Not available.
METAR KTEX 201417Z AUTO 00000KT 10SM SCT002 SCT021 BKN028 12/12 A3029 RMK AO2

More Conditions Fewer Conditions

10-Day Weather Forecast

Almanac

Astronomy

Aug. 20, 2014 Rise Set
Actual Time 6:30 AM MDT 7:57 PM MDT
Civil Twilight 6:03 AM MDT 8:25 PM MDT
Nautical Twilight 5:30 AM MDT 8:58 PM MDT
Astronomical Twilight 4:55 AM MDT 9:33 PM MDT
Moon 2:15 AM MDT 4:43 PM MDT
Length of Visible Light 14h 22m
Length of Day
13h 26m
Tomorrow will be 2m 13s shorter.
Waning Crescent, 21% of the Moon is Illuminated
Today
Waning Crescent
Aug 25
New
Sep 2
First Quarter
Sep 8
Full
Sep 15
Last Quarter

Today's Extremes

State Highs State Lows

Community

WunderPhotos

Upload Photos

1,745,658 photos uploaded!

Nearby

Snow Depth

Station Depth Elevation
Red Mountain Pass 0 in 11150 ft
Mineral Creek 0 in 10040 ft
Lizard Head Pass 1 in 10200 ft
El Diente Peak 1 in 10200 ft
Molas Lake 0 in 10500 ft

Earthquake Activity

City Distance Mag. Time & Date
No recent earthquake activity has been reported nearby.
Minimum magnitude displayed is 2.5.

Coastal Water Temperatures

Place Temperature
No Stations Reporting

Nearby Weather Stations